sensor_id;sensor_type;location;lat;lon;timestamp;P1;durP1;ratioP1;P2;durP2;ratioP2
23280;SDS011;11809;56.390;-3.266;2022-11-12T00:00:58;1.73;;;0.40;;
23280;SDS011;11809;56.390;-3.266;2022-11-12T00:03:25;0.20;;;0.20;;
23280;SDS011;11809;56.390;-3.266;2022-11-12T00:05:52;1.52;;;0.38;;
23280;SDS011;11809;56.390;-3.266;2022-11-12T00:08:20;0.32;;;0.25;;
23280;SDS011;11809;56.390;-3.266;2022-11-12T00:10:48;0.70;;;0.43;;
23280;SDS011;11809;56.390;-3.266;2022-11-12T00:13:15;0.35;;;0.25;;
23280;SDS011;11809;56.390;-3.266;2022-11-12T00:15:42;0.73;;;0.22;;
23280;SDS011;11809;56.390;-3.266;2022-11-12T00:18:09;1.63;;;0.30;;
23280;SDS011;11809;56.390;-3.266;2022-11-12T00:20:36;0.40;;;0.30;;
23280;SDS011;11809;56.390;-3.266;2022-11-12T00:23:03;0.50;;;0.35;;
23280;SDS011;11809;56.390;-3.266;2022-11-12T00:25:30;0.50;;;0.20;;
23280;SDS011;11809;56.390;-3.266;2022-11-12T00:28:00;0.47;;;0.30;;
23280;SDS011;11809;56.390;-3.266;2022-11-12T00:30:32;0.30;;;0.30;;
23280;SDS011;11809;56.390;-3.266;2022-11-12T00:33:00;0.70;;;0.25;;
23280;SDS011;11809;56.390;-3.266;2022-11-12T00:35:29;0.28;;;0.20;;
23280;SDS011;11809;56.390;-3.266;2022-11-12T00:37:57;0.40;;;0.20;;
23280;SDS011;11809;56.390;-3.266;2022-11-12T00:40:24;0.50;;;0.30;;
23280;SDS011;11809;56.390;-3.266;2022-11-12T00:42:52;0.50;;;0.30;;
23280;SDS011;11809;56.390;-3.266;2022-11-12T00:45:19;0.65;;;0.40;;
23280;SDS011;11809;56.390;-3.266;2022-11-12T00:47:47;1.80;;;0.32;;
23280;SDS011;11809;56.390;-3.266;2022-11-12T00:50:14;0.50;;;0.20;;
23280;SDS011;11809;56.390;-3.266;2022-11-12T00:52:42;0.65;;;0.20;;
23280;SDS011;11809;56.390;-3.266;2022-11-12T00:55:09;0.63;;;0.30;;
23280;SDS011;11809;56.390;-3.266;2022-11-12T00:57:36;0.40;;;0.20;;
23280;SDS011;11809;56.390;-3.266;2022-11-12T01:00:04;0.82;;;0.35;;
23280;SDS011;11809;56.390;-3.266;2022-11-12T01:02:32;0.80;;;0.20;;
23280;SDS011;11809;56.390;-3.266;2022-11-12T01:05:09;0.40;;;0.20;;
23280;SDS011;11809;56.390;-3.266;2022-11-12T01:07:36;0.20;;;0.10;;
23280;SDS011;11809;56.390;-3.266;2022-11-12T01:10:03;0.50;;;0.20;;
23280;SDS011;11809;56.390;-3.266;2022-11-12T01:12:30;0.30;;;0.25;;
23280;SDS011;11809;56.390;-3.266;2022-11-12T01:14:57;0.65;;;0.20;;
23280;SDS011;11809;56.390;-3.266;2022-11-12T01:17:24;0.52;;;0.32;;
23280;SDS011;11809;56.390;-3.266;2022-11-12T01:19:51;0.38;;;0.25;;
23280;SDS011;11809;56.390;-3.266;2022-11-12T01:22:18;0.38;;;0.20;;
23280;SDS011;11809;56.390;-3.266;2022-11-12T01:24:45;1.10;;;0.30;;
23280;SDS011;11809;56.390;-3.266;2022-11-12T01:27:12;0.77;;;0.30;;
23280;SDS011;11809;56.390;-3.266;2022-11-12T01:29:39;0.43;;;0.28;;
23280;SDS011;11809;56.390;-3.266;2022-11-12T01:32:06;3.03;;;0.30;;
23280;SDS011;11809;56.390;-3.266;2022-11-12T01:34:33;0.47;;;0.30;;
23280;SDS011;11809;56.390;-3.266;2022-11-12T01:37:00;0.55;;;0.30;;
23280;SDS011;11809;56.390;-3.266;2022-11-12T01:39:27;0.30;;;0.30;;
23280;SDS011;11809;56.390;-3.266;2022-11-12T01:41:54;0.28;;;0.20;;
23280;SDS011;11809;56.390;-3.266;2022-11-12T01:44:22;0.20;;;0.10;;
23280;SDS011;11809;56.390;-3.266;2022-11-12T01:52:35;0.40;;;0.20;;
23280;SDS011;11809;56.390;-3.266;2022-11-12T01:55:17;0.30;;;0.20;;
23280;SDS011;11809;56.390;-3.266;2022-11-12T01:57:48;0.30;;;0.20;;
23280;SDS011;11809;56.390;-3.266;2022-11-12T02:00:20;1.30;;;0.40;;
23280;SDS011;11809;56.390;-3.266;2022-11-12T02:02:51;0.70;;;0.45;;
23280;SDS011;11809;56.390;-3.266;2022-11-12T02:05:20;0.55;;;0.20;;
23280;SDS011;11809;56.390;-3.266;2022-11-12T02:07:50;0.40;;;0.20;;
23280;SDS011;11809;56.390;-3.266;2022-11-12T02:10:18;1.10;;;0.43;;
23280;SDS011;11809;56.390;-3.266;2022-11-12T02:12:47;1.05;;;0.30;;
23280;SDS011;11809;56.390;-3.266;2022-11-12T02:15:34;0.55;;;0.30;;
23280;SDS011;11809;56.390;-3.266;2022-11-12T02:18:03;0.55;;;0.28;;
23280;SDS011;11809;56.390;-3.266;2022-11-12T02:20:34;0.40;;;0.40;;
23280;SDS011;11809;56.390;-3.266;2022-11-12T02:23:04;0.50;;;0.28;;
23280;SDS011;11809;56.390;-3.266;2022-11-12T02:25:32;0.32;;;0.20;;
23280;SDS011;11809;56.390;-3.266;2022-11-12T02:28:01;0.20;;;0.20;;
23280;SDS011;11809;56.390;-3.266;2022-11-12T02:33:01;0.45;;;0.30;;
23280;SDS011;11809;56.390;-3.266;2022-11-12T02:35:29;1.45;;;0.30;;
23280;SDS011;11809;56.390;-3.266;2022-11-12T02:37:56;0.40;;;0.30;;
23280;SDS011;11809;56.390;-3.266;2022-11-12T02:40:24;0.50;;;0.30;;
23280;SDS011;11809;56.390;-3.266;2022-11-12T02:42:51;0.30;;;0.20;;
23280;SDS011;11809;56.390;-3.266;2022-11-12T02:45:18;0.30;;;0.20;;
23280;SDS011;11809;56.390;-3.266;2022-11-12T02:47:45;0.20;;;0.20;;
23280;SDS011;11809;56.390;-3.266;2022-11-12T02:50:12;1.35;;;0.30;;
23280;SDS011;11809;56.390;-3.266;2022-11-12T02:52:39;0.20;;;0.20;;
23280;SDS011;11809;56.390;-3.266;2022-11-12T02:55:07;0.30;;;0.20;;
23280;SDS011;11809;56.390;-3.266;2022-11-12T02:57:36;0.50;;;0.30;;
23280;SDS011;11809;56.390;-3.266;2022-11-12T03:00:04;0.20;;;0.20;;
23280;SDS011;11809;56.390;-3.266;2022-11-12T03:02:33;0.22;;;0.22;;
23280;SDS011;11809;56.390;-3.266;2022-11-12T03:05:00;0.47;;;0.20;;
23280;SDS011;11809;56.390;-3.266;2022-11-12T03:07:27;0.30;;;0.30;;
23280;SDS011;11809;56.390;-3.266;2022-11-12T03:09:53;0.20;;;0.20;;
23280;SDS011;11809;56.390;-3.266;2022-11-12T03:12:20;0.40;;;0.15;;
23280;SDS011;11809;56.390;-3.266;2022-11-12T03:14:47;0.30;;;0.10;;
23280;SDS011;11809;56.390;-3.266;2022-11-12T03:17:14;0.50;;;0.20;;
23280;SDS011;11809;56.390;-3.266;2022-11-12T03:19:41;0.43;;;0.30;;
23280;SDS011;11809;56.390;-3.266;2022-11-12T03:22:08;1.23;;;0.30;;
23280;SDS011;11809;56.390;-3.266;2022-11-12T03:24:35;1.13;;;0.30;;
23280;SDS011;11809;56.390;-3.266;2022-11-12T03:27:01;0.30;;;0.30;;
23280;SDS011;11809;56.390;-3.266;2022-11-12T03:29:28;0.40;;;0.25;;
23280;SDS011;11809;56.390;-3.266;2022-11-12T03:31:55;0.50;;;0.38;;
23280;SDS011;11809;56.390;-3.266;2022-11-12T03:34:22;0.35;;;0.20;;
23280;SDS011;11809;56.390;-3.266;2022-11-12T03:36:49;0.30;;;0.20;;
23280;SDS011;11809;56.390;-3.266;2022-11-12T03:39:16;0.50;;;0.30;;
23280;SDS011;11809;56.390;-3.266;2022-11-12T03:41:43;0.20;;;0.20;;
23280;SDS011;11809;56.390;-3.266;2022-11-12T03:44:09;0.40;;;0.20;;
23280;SDS011;11809;56.390;-3.266;2022-11-12T03:46:36;0.57;;;0.20;;
23280;SDS011;11809;56.390;-3.266;2022-11-12T03:49:09;0.20;;;0.20;;
23280;SDS011;11809;56.390;-3.266;2022-11-12T03:51:36;0.22;;;0.20;;
23280;SDS011;11809;56.390;-3.266;2022-11-12T03:54:03;0.80;;;0.30;;
23280;SDS011;11809;56.390;-3.266;2022-11-12T03:56:30;0.63;;;0.30;;
23280;SDS011;11809;56.390;-3.266;2022-11-12T03:58:56;1.48;;;0.20;;
23280;SDS011;11809;56.390;-3.266;2022-11-12T04:01:23;0.17;;;0.15;;
23280;SDS011;11809;56.390;-3.266;2022-11-12T04:03:50;0.13;;;0.13;;
23280;SDS011;11809;56.390;-3.266;2022-11-12T04:06:17;0.35;;;0.28;;
23280;SDS011;11809;56.390;-3.266;2022-11-12T04:09:04;0.73;;;0.30;;
23280;SDS011;11809;56.390;-3.266;2022-11-12T04:11:31;0.68;;;0.25;;
23280;SDS011;11809;56.390;-3.266;2022-11-12T04:13:57;1.38;;;0.30;;
23280;SDS011;11809;56.390;-3.266;2022-11-12T04:16:25;0.45;;;0.20;;
23280;SDS011;11809;56.390;-3.266;2022-11-12T04:19:11;0.57;;;0.30;;
23280;SDS011;11809;56.390;-3.266;2022-11-12T04:24:30;0.93;;;0.20;;
23280;SDS011;11809;56.390;-3.266;2022-11-12T04:29:49;0.28;;;0.28;;
23280;SDS011;11809;56.390;-3.266;2022-11-12T04:32:39;0.22;;;0.20;;
23280;SDS011;11809;56.390;-3.266;2022-11-12T04:35:12;0.98;;;0.50;;
23280;SDS011;11809;56.390;-3.266;2022-11-12T04:37:39;0.32;;;0.30;;
23280;SDS011;11809;56.390;-3.266;2022-11-12T04:42:57;0.65;;;0.30;;
23280;SDS011;11809;56.390;-3.266;2022-11-12T04:45:44;0.35;;;0.25;;
23280;SDS011;11809;56.390;-3.266;2022-11-12T04:48:13;0.30;;;0.30;;
23280;SDS011;11809;56.390;-3.266;2022-11-12T04:50:40;0.30;;;0.20;;
23280;SDS011;11809;56.390;-3.266;2022-11-12T04:53:09;0.63;;;0.30;;
23280;SDS011;11809;56.390;-3.266;2022-11-12T04:55:36;0.30;;;0.30;;
23280;SDS011;11809;56.390;-3.266;2022-11-12T04:58:03;0.20;;;0.20;;
23280;SDS011;11809;56.390;-3.266;2022-11-12T05:00:30;0.80;;;0.30;;
23280;SDS011;11809;56.390;-3.266;2022-11-12T05:02:57;0.30;;;0.20;;
23280;SDS011;11809;56.390;-3.266;2022-11-12T05:05:24;0.32;;;0.30;;
23280;SDS011;11809;56.390;-3.266;2022-11-12T05:07:59;0.70;;;0.22;;
23280;SDS011;11809;56.390;-3.266;2022-11-12T05:10:26;0.40;;;0.20;;
23280;SDS011;11809;56.390;-3.266;2022-11-12T05:12:54;0.70;;;0.22;;
23280;SDS011;11809;56.390;-3.266;2022-11-12T05:15:21;0.73;;;0.30;;
23280;SDS011;11809;56.390;-3.266;2022-11-12T05:17:48;1.42;;;0.30;;
23280;SDS011;11809;56.390;-3.266;2022-11-12T05:20:15;0.40;;;0.30;;
23280;SDS011;11809;56.390;-3.266;2022-11-12T05:22:42;0.60;;;0.25;;
23280;SDS011;11809;56.390;-3.266;2022-11-12T05:25:30;0.65;;;0.30;;
23280;SDS011;11809;56.390;-3.266;2022-11-12T05:27:56;0.13;;;0.13;;
23280;SDS011;11809;56.390;-3.266;2022-11-12T05:30:23;0.20;;;0.20;;
23280;SDS011;11809;56.390;-3.266;2022-11-12T05:32:50;0.82;;;0.30;;
23280;SDS011;11809;56.390;-3.266;2022-11-12T05:35:17;0.63;;;0.30;;
23280;SDS011;11809;56.390;-3.266;2022-11-12T05:37:44;0.73;;;0.28;;
23280;SDS011;11809;56.390;-3.266;2022-11-12T05:40:11;0.40;;;0.22;;
23280;SDS011;11809;56.390;-3.266;2022-11-12T05:42:38;0.30;;;0.20;;
23280;SDS011;11809;56.390;-3.266;2022-11-12T05:45:05;0.82;;;0.30;;
23280;SDS011;11809;56.390;-3.266;2022-11-12T05:47:33;2.78;;;0.30;;
23280;SDS011;11809;56.390;-3.266;2022-11-12T05:50:00;1.30;;;0.20;;
23280;SDS011;11809;56.390;-3.266;2022-11-12T05:52:27;0.73;;;0.30;;
23280;SDS011;11809;56.390;-3.266;2022-11-12T05:54:54;1.70;;;0.20;;
23280;SDS011;11809;56.390;-3.266;2022-11-12T05:57:20;0.85;;;0.30;;
23280;SDS011;11809;56.390;-3.266;2022-11-12T05:59:47;0.63;;;0.40;;
23280;SDS011;11809;56.390;-3.266;2022-11-12T06:02:14;2.53;;;0.30;;
23280;SDS011;11809;56.390;-3.266;2022-11-12T06:04:41;2.95;;;0.40;;
23280;SDS011;11809;56.390;-3.266;2022-11-12T06:07:08;1.65;;;0.30;;
23280;SDS011;11809;56.390;-3.266;2022-11-12T06:09:35;1.55;;;0.30;;
23280;SDS011;11809;56.390;-3.266;2022-11-12T06:12:02;1.95;;;0.20;;
23280;SDS011;11809;56.390;-3.266;2022-11-12T06:14:31;3.50;;;0.30;;
23280;SDS011;11809;56.390;-3.266;2022-11-12T06:16:58;1.00;;;0.20;;
23280;SDS011;11809;56.390;-3.266;2022-11-12T06:19:25;1.65;;;0.30;;
23280;SDS011;11809;56.390;-3.266;2022-11-12T06:21:52;2.20;;;0.30;;
23280;SDS011;11809;56.390;-3.266;2022-11-12T06:24:19;5.75;;;0.55;;
23280;SDS011;11809;56.390;-3.266;2022-11-12T06:26:46;3.33;;;0.30;;
23280;SDS011;11809;56.390;-3.266;2022-11-12T06:29:13;0.77;;;0.30;;
23280;SDS011;11809;56.390;-3.266;2022-11-12T06:31:40;1.10;;;0.30;;
23280;SDS011;11809;56.390;-3.266;2022-11-12T06:34:06;0.50;;;0.20;;
23280;SDS011;11809;56.390;-3.266;2022-11-12T06:36:33;0.28;;;0.20;;
23280;SDS011;11809;56.390;-3.266;2022-11-12T06:39:01;0.50;;;0.30;;
23280;SDS011;11809;56.390;-3.266;2022-11-12T06:41:29;0.45;;;0.20;;
23280;SDS011;11809;56.390;-3.266;2022-11-12T06:43:56;0.52;;;0.20;;
23280;SDS011;11809;56.390;-3.266;2022-11-12T06:46:23;1.33;;;0.30;;
23280;SDS011;11809;56.390;-3.266;2022-11-12T06:48:49;1.20;;;0.20;;
23280;SDS011;11809;56.390;-3.266;2022-11-12T06:51:17;1.00;;;0.28;;
23280;SDS011;11809;56.390;-3.266;2022-11-12T06:53:45;0.65;;;0.30;;
23280;SDS011;11809;56.390;-3.266;2022-11-12T06:56:14;0.25;;;0.20;;
23280;SDS011;11809;56.390;-3.266;2022-11-12T06:58:41;3.45;;;0.30;;
23280;SDS011;11809;56.390;-3.266;2022-11-12T07:01:12;0.63;;;0.38;;
23280;SDS011;11809;56.390;-3.266;2022-11-12T07:03:41;1.30;;;0.20;;
23280;SDS011;11809;56.390;-3.266;2022-11-12T07:06:11;0.40;;;0.20;;
23280;SDS011;11809;56.390;-3.266;2022-11-12T07:08:39;0.38;;;0.30;;
23280;SDS011;11809;56.390;-3.266;2022-11-12T07:11:07;0.20;;;0.20;;
23280;SDS011;11809;56.390;-3.266;2022-11-12T07:13:35;0.65;;;0.30;;
23280;SDS011;11809;56.390;-3.266;2022-11-12T07:16:03;0.57;;;0.25;;
23280;SDS011;11809;56.390;-3.266;2022-11-12T07:18:32;0.85;;;0.47;;
23280;SDS011;11809;56.390;-3.266;2022-11-12T07:21:04;0.77;;;0.20;;
23280;SDS011;11809;56.390;-3.266;2022-11-12T07:23:33;0.20;;;0.10;;
23280;SDS011;11809;56.390;-3.266;2022-11-12T07:28:44;1.65;;;0.30;;
23280;SDS011;11809;56.390;-3.266;2022-11-12T07:31:12;0.28;;;0.20;;
23280;SDS011;11809;56.390;-3.266;2022-11-12T07:33:40;1.75;;;0.40;;
23280;SDS011;11809;56.390;-3.266;2022-11-12T07:36:09;2.90;;;0.45;;
23280;SDS011;11809;56.390;-3.266;2022-11-12T07:38:38;8.13;;;0.30;;
23280;SDS011;11809;56.390;-3.266;2022-11-12T07:41:10;2.60;;;0.40;;
23280;SDS011;11809;56.390;-3.266;2022-11-12T07:43:40;2.42;;;0.65;;
23280;SDS011;11809;56.390;-3.266;2022-11-12T07:48:43;1.05;;;0.38;;
23280;SDS011;11809;56.390;-3.266;2022-11-12T07:51:12;1.88;;;0.40;;
23280;SDS011;11809;56.390;-3.266;2022-11-12T07:53:44;0.90;;;0.30;;
23280;SDS011;11809;56.390;-3.266;2022-11-12T07:56:13;0.43;;;0.30;;
23280;SDS011;11809;56.390;-3.266;2022-11-12T07:58:42;0.50;;;0.30;;
23280;SDS011;11809;56.390;-3.266;2022-11-12T08:03:49;3.10;;;0.30;;
23280;SDS011;11809;56.390;-3.266;2022-11-12T08:06:16;0.40;;;0.30;;
23280;SDS011;11809;56.390;-3.266;2022-11-12T08:08:43;0.38;;;0.28;;
23280;SDS011;11809;56.390;-3.266;2022-11-12T08:11:10;0.20;;;0.20;;
23280;SDS011;11809;56.390;-3.266;2022-11-12T08:13:37;0.63;;;0.30;;
23280;SDS011;11809;56.390;-3.266;2022-11-12T08:16:04;1.00;;;0.25;;
23280;SDS011;11809;56.390;-3.266;2022-11-12T08:18:32;0.85;;;0.30;;
23280;SDS011;11809;56.390;-3.266;2022-11-12T08:21:00;0.40;;;0.30;;
23280;SDS011;11809;56.390;-3.266;2022-11-12T08:23:28;0.25;;;0.25;;
23280;SDS011;11809;56.390;-3.266;2022-11-12T08:25:59;0.20;;;0.20;;
23280;SDS011;11809;56.390;-3.266;2022-11-12T08:28:28;0.98;;;0.32;;
23280;SDS011;11809;56.390;-3.266;2022-11-12T08:30:57;1.27;;;0.40;;
23280;SDS011;11809;56.390;-3.266;2022-11-12T08:33:29;0.88;;;0.40;;
23280;SDS011;11809;56.390;-3.266;2022-11-12T08:35:56;0.20;;;0.20;;
23280;SDS011;11809;56.390;-3.266;2022-11-12T08:38:23;0.40;;;0.30;;
23280;SDS011;11809;56.390;-3.266;2022-11-12T08:40:51;0.22;;;0.20;;
23280;SDS011;11809;56.390;-3.266;2022-11-12T08:43:18;0.40;;;0.20;;
23280;SDS011;11809;56.390;-3.266;2022-11-12T08:45:45;0.20;;;0.20;;
23280;SDS011;11809;56.390;-3.266;2022-11-12T08:48:13;0.20;;;0.20;;
23280;SDS011;11809;56.390;-3.266;2022-11-12T08:50:41;0.20;;;0.20;;
23280;SDS011;11809;56.390;-3.266;2022-11-12T08:53:09;0.10;;;0.10;;
23280;SDS011;11809;56.390;-3.266;2022-11-12T08:55:38;0.40;;;0.20;;
23280;SDS011;11809;56.390;-3.266;2022-11-12T08:58:06;0.65;;;0.22;;
23280;SDS011;11809;56.390;-3.266;2022-11-12T09:00:34;0.57;;;0.25;;
23280;SDS011;11809;56.390;-3.266;2022-11-12T09:03:04;0.20;;;0.20;;
23280;SDS011;11809;56.390;-3.266;2022-11-12T09:05:33;5.78;;;0.43;;
23280;SDS011;11809;56.390;-3.266;2022-11-12T09:08:11;0.28;;;0.15;;
23280;SDS011;11809;56.390;-3.266;2022-11-12T09:10:40;0.10;;;0.10;;
23280;SDS011;11809;56.390;-3.266;2022-11-12T09:13:07;0.30;;;0.20;;
23280;SDS011;11809;56.390;-3.266;2022-11-12T09:15:35;0.20;;;0.20;;
23280;SDS011;11809;56.390;-3.266;2022-11-12T09:18:05;0.20;;;0.20;;
23280;SDS011;11809;56.390;-3.266;2022-11-12T09:20:34;0.30;;;0.20;;
23280;SDS011;11809;56.390;-3.266;2022-11-12T09:23:02;1.08;;;0.40;;
23280;SDS011;11809;56.390;-3.266;2022-11-12T09:25:31;13.77;;;1.25;;
23280;SDS011;11809;56.390;-3.266;2022-11-12T09:28:09;3.28;;;0.40;;
23280;SDS011;11809;56.390;-3.266;2022-11-12T09:30:41;1.88;;;0.30;;
23280;SDS011;11809;56.390;-3.266;2022-11-12T09:33:12;2.80;;;1.25;;
23280;SDS011;11809;56.390;-3.266;2022-11-12T09:35:44;10.27;;;2.45;;
23280;SDS011;11809;56.390;-3.266;2022-11-12T09:38:11;5.80;;;0.60;;
23280;SDS011;11809;56.390;-3.266;2022-11-12T09:43:18;3.00;;;0.50;;
23280;SDS011;11809;56.390;-3.266;2022-11-12T09:45:46;3.75;;;0.52;;
23280;SDS011;11809;56.390;-3.266;2022-11-12T09:48:40;1.77;;;0.40;;
23280;SDS011;11809;56.390;-3.266;2022-11-12T09:51:20;2.55;;;0.45;;
23280;SDS011;11809;56.390;-3.266;2022-11-12T09:54:45;2.85;;;0.65;;
23280;SDS011;11809;56.390;-3.266;2022-11-12T09:56:54;9.52;;;1.15;;
23280;SDS011;11809;56.390;-3.266;2022-11-12T09:59:21;4.55;;;0.50;;
23280;SDS011;11809;56.390;-3.266;2022-11-12T10:02:04;7.60;;;0.95;;
23280;SDS011;11809;56.390;-3.266;2022-11-12T10:14:01;3.97;;;0.75;;
23280;SDS011;11809;56.390;-3.266;2022-11-12T10:21:55;1.20;;;0.50;;
23280;SDS011;11809;56.390;-3.266;2022-11-12T10:24:33;1.17;;;0.50;;
23280;SDS011;11809;56.390;-3.266;2022-11-12T10:27:25;1.52;;;0.40;;
23280;SDS011;11809;56.390;-3.266;2022-11-12T10:29:55;2.20;;;0.63;;
23280;SDS011;11809;56.390;-3.266;2022-11-12T10:32:27;1.85;;;0.63;;
23280;SDS011;11809;56.390;-3.266;2022-11-12T10:34:54;2.58;;;0.60;;
23280;SDS011;11809;56.390;-3.266;2022-11-12T10:39:52;1.17;;;0.40;;
23280;SDS011;11809;56.390;-3.266;2022-11-12T10:42:21;3.53;;;0.40;;
23280;SDS011;11809;56.390;-3.266;2022-11-12T10:44:49;2.47;;;0.70;;
23280;SDS011;11809;56.390;-3.266;2022-11-12T10:47:27;3.80;;;0.50;;
23280;SDS011;11809;56.390;-3.266;2022-11-12T10:49:59;1.25;;;0.43;;
23280;SDS011;11809;56.390;-3.266;2022-11-12T10:52:33;2.47;;;0.43;;
23280;SDS011;11809;56.390;-3.266;2022-11-12T10:55:20;1.17;;;0.40;;
23280;SDS011;11809;56.390;-3.266;2022-11-12T11:00:35;1.13;;;0.68;;
23280;SDS011;11809;56.390;-3.266;2022-11-12T11:03:24;0.93;;;0.40;;
23280;SDS011;11809;56.390;-3.266;2022-11-12T11:08:31;1.17;;;0.60;;
23280;SDS011;11809;56.390;-3.266;2022-11-12T11:13:51;0.77;;;0.50;;
23280;SDS011;11809;56.390;-3.266;2022-11-12T11:18:55;1.80;;;0.30;;
23280;SDS011;11809;56.390;-3.266;2022-11-12T11:27:04;1.27;;;0.50;;
23280;SDS011;11809;56.390;-3.266;2022-11-12T11:29:43;2.30;;;0.77;;
23280;SDS011;11809;56.390;-3.266;2022-11-12T11:40:35;9.95;;;0.90;;
23280;SDS011;11809;56.390;-3.266;2022-11-12T11:51:29;7.88;;;1.63;;
23280;SDS011;11809;56.390;-3.266;2022-11-12T11:56:42;28.63;;;7.68;;
23280;SDS011;11809;56.390;-3.266;2022-11-12T12:02:16;12.15;;;5.90;;
23280;SDS011;11809;56.390;-3.266;2022-11-12T12:04:47;15.20;;;6.50;;
23280;SDS011;11809;56.390;-3.266;2022-11-12T12:07:23;15.43;;;6.72;;
23280;SDS011;11809;56.390;-3.266;2022-11-12T12:22:58;6.68;;;3.78;;
23280;SDS011;11809;56.390;-3.266;2022-11-12T12:25:31;8.98;;;3.67;;
23280;SDS011;11809;56.390;-3.266;2022-11-12T12:30:36;9.00;;;3.60;;
23280;SDS011;11809;56.390;-3.266;2022-11-12T12:39:19;43.95;;;32.60;;
23280;SDS011;11809;56.390;-3.266;2022-11-12T12:41:57;34.45;;;24.92;;
23280;SDS011;11809;56.390;-3.266;2022-11-12T12:44:29;31.67;;;22.08;;
23280;SDS011;11809;56.390;-3.266;2022-11-12T12:47:22;36.35;;;23.50;;
23280;SDS011;11809;56.390;-3.266;2022-11-12T12:49:50;43.60;;;27.00;;
23280;SDS011;11809;56.390;-3.266;2022-11-12T12:52:19;29.70;;;22.75;;
23280;SDS011;11809;56.390;-3.266;2022-11-12T13:19:35;9.80;;;5.80;;
23280;SDS011;11809;56.390;-3.266;2022-11-12T13:33:01;11.50;;;3.77;;
23280;SDS011;11809;56.390;-3.266;2022-11-12T13:35:37;19.48;;;3.65;;
23280;SDS011;11809;56.390;-3.266;2022-11-12T13:43:36;6.70;;;3.58;;
23280;SDS011;11809;56.390;-3.266;2022-11-12T13:49:10;9.57;;;4.15;;
23280;SDS011;11809;56.390;-3.266;2022-11-12T13:51:36;8.13;;;3.88;;
23280;SDS011;11809;56.390;-3.266;2022-11-12T13:59:46;4.82;;;3.63;;
23280;SDS011;11809;56.390;-3.266;2022-11-12T14:02:19;6.10;;;4.15;;
23280;SDS011;11809;56.390;-3.266;2022-11-12T14:04:49;5.95;;;4.05;;
23280;SDS011;11809;56.390;-3.266;2022-11-12T14:09:58;5.75;;;4.00;;
23280;SDS011;11809;56.390;-3.266;2022-11-12T14:18:25;4.82;;;3.38;;
23280;SDS011;11809;56.390;-3.266;2022-11-12T14:21:05;6.38;;;3.47;;
23280;SDS011;11809;56.390;-3.266;2022-11-12T14:23:38;6.25;;;3.70;;
23280;SDS011;11809;56.390;-3.266;2022-11-12T14:26:05;4.60;;;2.92;;
23280;SDS011;11809;56.390;-3.266;2022-11-12T14:28:33;6.68;;;3.05;;
23280;SDS011;11809;56.390;-3.266;2022-11-12T14:31:02;4.28;;;3.10;;
23280;SDS011;11809;56.390;-3.266;2022-11-12T14:33:30;4.03;;;3.10;;
23280;SDS011;11809;56.390;-3.266;2022-11-12T14:35:59;4.50;;;3.13;;
23280;SDS011;11809;56.390;-3.266;2022-11-12T14:38:43;4.90;;;2.90;;
23280;SDS011;11809;56.390;-3.266;2022-11-12T14:41:18;3.55;;;2.58;;
23280;SDS011;11809;56.390;-3.266;2022-11-12T14:43:58;3.58;;;2.40;;
23280;SDS011;11809;56.390;-3.266;2022-11-12T14:46:38;3.73;;;2.47;;
23280;SDS011;11809;56.390;-3.266;2022-11-12T14:49:17;4.18;;;2.70;;
23280;SDS011;11809;56.390;-3.266;2022-11-12T14:51:50;5.10;;;2.50;;
23280;SDS011;11809;56.390;-3.266;2022-11-12T14:56:58;8.95;;;2.60;;
23280;SDS011;11809;56.390;-3.266;2022-11-12T14:59:28;5.10;;;2.30;;
23280;SDS011;11809;56.390;-3.266;2022-11-12T15:02:30;6.82;;;2.08;;
23280;SDS011;11809;56.390;-3.266;2022-11-12T15:05:18;7.93;;;2.17;;
23280;SDS011;11809;56.390;-3.266;2022-11-12T15:08:03;4.63;;;2.00;;
23280;SDS011;11809;56.390;-3.266;2022-11-12T15:10:41;4.37;;;2.10;;
23280;SDS011;11809;56.390;-3.266;2022-11-12T15:18:30;2.10;;;1.60;;
23280;SDS011;11809;56.390;-3.266;2022-11-12T15:21:11;2.47;;;1.40;;
23280;SDS011;11809;56.390;-3.266;2022-11-12T15:24:14;3.63;;;1.30;;
23280;SDS011;11809;56.390;-3.266;2022-11-12T15:26:43;2.05;;;1.60;;
23280;SDS011;11809;56.390;-3.266;2022-11-12T15:29:23;6.77;;;3.77;;
23280;SDS011;11809;56.390;-3.266;2022-11-12T15:31:55;25.77;;;12.45;;
23280;SDS011;11809;56.390;-3.266;2022-11-12T15:37:08;13.68;;;6.75;;
23280;SDS011;11809;56.390;-3.266;2022-11-12T15:39:46;8.77;;;4.43;;
23280;SDS011;11809;56.390;-3.266;2022-11-12T15:42:38;11.80;;;5.13;;
23280;SDS011;11809;56.390;-3.266;2022-11-12T15:47:42;12.95;;;4.72;;
23280;SDS011;11809;56.390;-3.266;2022-11-12T15:52:39;10.07;;;3.92;;
23280;SDS011;11809;56.390;-3.266;2022-11-12T15:55:06;8.25;;;3.40;;
23280;SDS011;11809;56.390;-3.266;2022-11-12T15:57:37;10.32;;;4.45;;
23280;SDS011;11809;56.390;-3.266;2022-11-12T16:00:17;8.80;;;3.83;;
23280;SDS011;11809;56.390;-3.266;2022-11-12T16:02:56;8.77;;;3.30;;
23280;SDS011;11809;56.390;-3.266;2022-11-12T16:05:29;6.47;;;3.08;;
23280;SDS011;11809;56.390;-3.266;2022-11-12T16:07:56;7.45;;;3.22;;
23280;SDS011;11809;56.390;-3.266;2022-11-12T16:10:23;5.28;;;2.97;;
23280;SDS011;11809;56.390;-3.266;2022-11-12T16:12:51;4.45;;;2.47;;
23280;SDS011;11809;56.390;-3.266;2022-11-12T16:15:24;5.75;;;2.80;;
23280;SDS011;11809;56.390;-3.266;2022-11-12T16:17:52;5.93;;;2.78;;
23280;SDS011;11809;56.390;-3.266;2022-11-12T16:22:49;7.15;;;2.42;;
23280;SDS011;11809;56.390;-3.266;2022-11-12T16:25:17;34.58;;;3.53;;
23280;SDS011;11809;56.390;-3.266;2022-11-12T16:27:46;18.88;;;2.90;;
23280;SDS011;11809;56.390;-3.266;2022-11-12T16:30:22;4.63;;;2.15;;
23280;SDS011;11809;56.390;-3.266;2022-11-12T16:32:59;7.88;;;2.35;;
23280;SDS011;11809;56.390;-3.266;2022-11-12T16:35:27;9.10;;;2.00;;
23280;SDS011;11809;56.390;-3.266;2022-11-12T16:37:58;11.20;;;2.13;;
23280;SDS011;11809;56.390;-3.266;2022-11-12T16:40:26;8.02;;;2.00;;
23280;SDS011;11809;56.390;-3.266;2022-11-12T16:42:55;11.82;;;2.08;;
23280;SDS011;11809;56.390;-3.266;2022-11-12T16:45:23;3.88;;;1.70;;
23280;SDS011;11809;56.390;-3.266;2022-11-12T16:47:57;9.85;;;1.90;;
23280;SDS011;11809;56.390;-3.266;2022-11-12T16:50:25;4.07;;;1.70;;
23280;SDS011;11809;56.390;-3.266;2022-11-12T16:52:53;7.05;;;2.15;;
23280;SDS011;11809;56.390;-3.266;2022-11-12T16:55:21;4.95;;;1.80;;
23280;SDS011;11809;56.390;-3.266;2022-11-12T16:57:48;4.43;;;1.50;;
23280;SDS011;11809;56.390;-3.266;2022-11-12T17:00:16;3.67;;;1.55;;
23280;SDS011;11809;56.390;-3.266;2022-11-12T17:02:44;6.10;;;1.65;;
23280;SDS011;11809;56.390;-3.266;2022-11-12T17:05:22;3.08;;;1.33;;
23280;SDS011;11809;56.390;-3.266;2022-11-12T17:07:53;2.72;;;1.30;;
23280;SDS011;11809;56.390;-3.266;2022-11-12T17:10:22;5.07;;;1.60;;
23280;SDS011;11809;56.390;-3.266;2022-11-12T17:12:51;6.95;;;2.10;;
23280;SDS011;11809;56.390;-3.266;2022-11-12T17:15:18;6.78;;;1.95;;
23280;SDS011;11809;56.390;-3.266;2022-11-12T17:17:45;5.85;;;1.83;;
23280;SDS011;11809;56.390;-3.266;2022-11-12T17:20:12;4.45;;;1.67;;
23280;SDS011;11809;56.390;-3.266;2022-11-12T17:22:40;6.03;;;1.65;;
23280;SDS011;11809;56.390;-3.266;2022-11-12T17:25:07;6.32;;;1.73;;
23280;SDS011;11809;56.390;-3.266;2022-11-12T17:27:34;3.15;;;1.58;;
23280;SDS011;11809;56.390;-3.266;2022-11-12T17:30:02;4.53;;;1.50;;
23280;SDS011;11809;56.390;-3.266;2022-11-12T17:32:30;5.18;;;1.80;;
23280;SDS011;11809;56.390;-3.266;2022-11-12T17:34:58;6.38;;;1.50;;
23280;SDS011;11809;56.390;-3.266;2022-11-12T17:37:25;2.03;;;1.30;;
23280;SDS011;11809;56.390;-3.266;2022-11-12T17:39:53;2.30;;;1.30;;
23280;SDS011;11809;56.390;-3.266;2022-11-12T17:42:20;5.90;;;1.30;;
23280;SDS011;11809;56.390;-3.266;2022-11-12T17:44:48;1.10;;;0.90;;
23280;SDS011;11809;56.390;-3.266;2022-11-12T17:47:15;3.72;;;1.60;;
23280;SDS011;11809;56.390;-3.266;2022-11-12T17:49:42;4.70;;;1.08;;
23280;SDS011;11809;56.390;-3.266;2022-11-12T17:52:09;1.80;;;1.20;;